Flushing, NY (11367)

8:23 PM EDT on September 19, 2014 (GMT -0400)
Meadow Lake | Change Station
CLOSE
Current Station
Personal Weather Station
Location: New York, NY
Elevation: -10 ft
Nearby Weather Stations

Elev -10 ft 40.73 °N, 73.84 °W | Updated 59 minutes ago

Mostly Cloudy
Mostly Cloudy
60.6 °F
Feels Like 60.6 °F
N
6.7
Wind Variable Wind from SSE
Gusts 9.6 mph

Today
High -- | Low -- °F
--% Chance of Precip.
Yesterday
High -- | Low -- °F
Precip. -- in
6:39 AM 6:57 PM
Waning Crescent, 16% visible
Pressure 30.37 in
Visibility 10.0 miles
Clouds Mostly Cloudy 4000 ft
Dew Point 50 °F
Humidity 67%
Rainfall -999.00 in
Snow Depth Not available.
UV 0 out of 12
Pollen 3.10 out of 12
Air Quality Not available.
Flu Activity Not available.
METAR KLGA 192351Z 13009KT 10SM BKN040 17/08 A3036 RMK AO2 SLP282 T01670083 10189 20161 53010

More Conditions Fewer Conditions

Pressure 30.37 in
Visibility 10.0 miles
Clouds Mostly Cloudy 4000 ft
Dew Point 50 °F
Humidity 67%
Rainfall -999.00 in
Snow Depth Not available.
UV 0 out of 12
Pollen 3.10 out of 12
Air Quality Not available.
Flu Activity Not available.
METAR KLGA 192351Z 13009KT 10SM BKN040 17/08 A3036 RMK AO2 SLP282 T01670083 10189 20161 53010

More Conditions Fewer Conditions

10-Day Weather Forecast

Almanac

Astronomy

Sep. 19, 2014 Rise Set
Actual Time 6:39 AM EDT 6:57 PM EDT
Civil Twilight 6:12 AM EDT 7:24 PM EDT
Nautical Twilight 5:40 AM EDT 7:56 PM EDT
Astronomical Twilight 5:07 AM EDT 8:29 PM EDT
Moon 2:21 AM EDT (9/19) 4:25 PM EDT (9/19)
Length of Visible Light 13h 12m
Length of Day
12h 17m
Tomorrow will be 2m 41s shorter.
Waning Crescent, 16% of the Moon is Illuminated
Today
Waning Crescent
Sep 24
New
Oct 1
First Quarter
Oct 8
Full
Oct 15
Last Quarter

Today's Extremes

State Highs State Lows

Community

WunderPhotos

Upload Photos

1,754,744 photos uploaded!

WunderBlogs® & News

Nearby

Snow Depth

Station Depth Elevation
No new snow has been reported.

Earthquake Activity

City Distance Mag. Time & Date
No recent earthquake activity has been reported nearby.
Minimum magnitude displayed is 2.5.

Coastal Water Temperatures

Place Temperature
Bridgeport, CT 69.1 °F

Nearby Weather Stations